Palm Springs, CA

10:24 AM PST on December 06, 2016 (GMT -0800)
Palm Springs International | | Change Station

Elev 476 ft 33.82 °N, 116.50 °W | Updated 31 minutes ago

Clear
Clear
62 °F
Feels Like 62 °F
N
0
Wind Variable Wind from North

Today
High -- | Low -- °F
--% Chance of Precip.
Yesterday
High -- | Low -- °F
Precip. -- in
Pressure 29.92 in
Visibility 10.0 miles
Clouds Clear
Dew Point 31 °F
Humidity 31%
Rainfall 0.00 in
Snow Depth Not available.
6:37 AM 4:37 PM
Waxing Crescent, 44% visible
METAR KPSP 061753Z 00000KT 10SM CLR 17/M01 A2992 RMK AO2 SLP131 T01671006 10167 20078 51007
Pressure 29.92 in
Visibility 10.0 miles
Clouds Clear
Dew Point 31 °F
Humidity 31%
Rainfall 0.00 in
Snow Depth Not available.
6:37 AM 4:37 PM
Waxing Crescent, 44% visible
METAR KPSP 061753Z 00000KT 10SM CLR 17/M01 A2992 RMK AO2 SLP131 T01671006 10167 20078 51007

10-Day Weather Forecast

Almanac

Astronomy

Dec. 06, 2016 Rise Set
Actual Time
Civil Twilight
Nautical Twilight
Astronomical Twilight
Moon
Length of Visible Light
Length of Day
Tomorrow will be .
, % of the Moon is Illuminated

Today's Extremes

State Highs State Lows

Community

WunderPhotos

Upload Photos

1,955,999 photos uploaded!

WunderBlog® & News

Nearby

Air Quality

  Air Quality AQ Index Pollutant
Not available.

Snow Depth

Station Depth Elevation

Earthquake Activity

City Distance Mag. Time & Date
Minimum magnitude displayed is 2.5.

Coastal Water Temperatures

Place Temperature

Stations

Nearby Weather Stations

Station Location Temp. Windchill Dew Point Humidity Wind Precip. Elev Updated Type
                   

Watches & Warnings

There are currently no watches in effect.